createdAt,value
2022-08-07T00:02:35.192Z,99669.71
2022-08-07T00:04:09.703Z,99665.85
2022-08-07T00:06:47.276Z,99673.38
2022-08-07T00:09:29.164Z,99678.09
2022-08-07T00:12:03.156Z,99677.57
2022-08-07T00:14:31.667Z,99678.09
2022-08-07T00:17:01.685Z,99680.02
2022-08-07T00:19:34.080Z,99681.59
2022-08-07T00:22:24.663Z,99682.64
2022-08-07T00:25:07.373Z,99677.40
2022-08-07T00:27:53.253Z,99674.77
2022-08-07T00:30:27.227Z,99674.77
2022-08-07T00:32:58.352Z,99673.38
2022-08-07T00:35:26.429Z,99678.96
2022-08-07T00:37:54.354Z,99680.53
2022-08-07T00:40:36.430Z,99683.52
2022-08-07T00:44:01.151Z,99681.23
2022-08-07T00:45:59.090Z,99681.75
2022-08-07T00:48:31.861Z,99682.80
2022-08-07T00:51:02.522Z,99683.14
2022-08-07T00:53:38.934Z,99675.09
2022-08-07T00:56:18.739Z,99673.86
2022-08-07T00:58:49.855Z,99676.77
2022-08-07T01:01:22.417Z,99675.88
2022-08-07T01:03:56.509Z,99675.18
2022-08-07T01:06:29.634Z,99676.92
2022-08-07T01:09:01.148Z,99677.09
2022-08-07T01:12:27.514Z,99677.27
2022-08-07T01:14:29.118Z,99672.35
2022-08-07T01:16:58.033Z,99673.03
2022-08-07T01:19:32.300Z,99671.61
2022-08-07T01:22:01.263Z,99676.66
2022-08-07T01:24:36.713Z,99674.41
2022-08-07T01:27:05.222Z,99671.23
2022-08-07T01:29:47.588Z,99674.70
2022-08-07T01:32:19.116Z,99671.73
2022-08-07T01:34:50.943Z,99673.30
2022-08-07T01:37:19.077Z,99679.24
2022-08-07T01:39:51.161Z,99678.70
2022-08-07T01:42:39.319Z,99682.38
2022-08-07T01:45:18.187Z,99682.54
2022-08-07T01:48:20.014Z,99683.05
2022-08-07T01:50:45.738Z,99686.19
2022-08-07T01:53:21.682Z,99686.69
2022-08-07T01:56:09.391Z,99686.33
2022-08-07T01:58:48.168Z,99691.75
2022-08-07T02:01:59.480Z,99692.09
2022-08-07T02:04:26.653Z,99690.14
2022-08-07T02:07:01.897Z,99695.00
2022-08-07T02:09:33.897Z,99690.59
2022-08-07T02:12:30.974Z,99690.38
2022-08-07T02:15:01.304Z,99689.48
2022-08-07T02:17:40.185Z,99691.40
2022-08-07T02:20:19.827Z,99688.29
2022-08-07T02:23:03.601Z,99687.95
2022-08-07T02:26:30.736Z,99688.29
2022-08-07T02:28:27.148Z,99693.35
2022-08-07T02:30:58.972Z,99697.17
2022-08-07T02:33:32.904Z,99702.23
2022-08-07T02:36:30.214Z,99703.77
2022-08-07T02:39:16.082Z,99701.61
2022-08-07T02:41:54.569Z,99707.30
2022-08-07T02:44:27.542Z,99702.57
2022-08-07T02:47:00.846Z,99701.52
2022-08-07T02:49:59.060Z,99704.17
2022-08-07T02:52:31.213Z,99704.25
2022-08-07T02:56:02.347Z,99698.15
2022-08-07T02:58:22.068Z,99696.88
2022-08-07T03:00:58.576Z,99699.12
2022-08-07T03:03:49.945Z,99696.21
2022-08-07T03:06:25.942Z,99696.55
2022-08-07T03:09:03.021Z,99696.48
2022-08-07T03:11:38.659Z,99697.51
2022-08-07T03:14:07.682Z,99695.54
2022-08-07T03:16:36.403Z,99690.63
2022-08-07T03:19:07.437Z,99691.02
2022-08-07T03:21:37.372Z,99695.27
2022-08-07T03:24:20.376Z,99693.71
2022-08-07T03:27:00.561Z,99689.70
2022-08-07T03:29:49.539Z,99691.84
2022-08-07T03:32:28.414Z,99691.34
2022-08-07T03:35:16.511Z,99696.77
2022-08-07T03:37:53.370Z,99692.73
2022-08-07T03:40:30.772Z,99693.78
2022-08-07T03:43:10.065Z,99694.84
2022-08-07T03:45:47.846Z,99693.27
2022-08-07T03:48:17.798Z,99691.89
2022-08-07T03:50:56.250Z,99689.27
2022-08-07T03:54:01.945Z,99686.63
2022-08-07T03:56:33.235Z,99686.98
2022-08-07T03:59:10.115Z,99689.80
2022-08-07T04:01:46.395Z,99687.36
2022-08-07T04:04:17.763Z,99688.42
2022-08-07T04:06:50.949Z,99686.46
2022-08-07T04:09:23.371Z,99685.06
2022-08-07T04:12:21.252Z,99688.89
2022-08-07T04:14:46.153Z,99689.41
2022-08-07T04:17:20.720Z,99690.30
2022-08-07T04:19:54.355Z,99688.73
2022-08-07T04:22:28.418Z,99690.30
2022-08-07T04:25:01.336Z,99691.35
2022-08-07T04:27:35.742Z,99697.85
2022-08-07T04:30:36.008Z,99701.74
2022-08-07T04:33:07.995Z,99698.52
2022-08-07T04:35:38.886Z,99707.95
2022-08-07T04:38:11.362Z,99706.82
2022-08-07T04:40:52.457Z,99714.42
2022-08-07T04:44:09.619Z,99714.45
2022-08-07T04:47:04.141Z,99710.84
2022-08-07T04:49:42.564Z,99714.24
2022-08-07T04:52:53.675Z,99712.61
2022-08-07T04:58:24.427Z,99715.04
2022-08-07T05:02:08.704Z,99721.23
2022-08-07T05:04:53.474Z,99727.57
2022-08-07T05:07:51.455Z,99728.01
2022-08-07T05:10:29.238Z,99742.92
2022-08-07T05:14:44.355Z,99747.79
2022-08-07T05:15:58.150Z,99752.09
2022-08-07T05:18:30.574Z,99752.84
2022-08-07T05:21:03.944Z,99749.88
2022-08-07T05:23:59.483Z,99746.44
2022-08-07T05:26:31.201Z,99745.24
2022-08-07T05:29:06.442Z,99749.20
2022-08-07T05:31:39.495Z,99755.78
2022-08-07T05:34:16.016Z,99754.14
2022-08-07T05:36:55.936Z,99761.94
2022-08-07T05:40:13.581Z,99758.93
2022-08-07T05:42:34.492Z,99761.86
2022-08-07T05:45:26.042Z,99761.03
2022-08-07T05:48:02.719Z,99761.09
2022-08-07T05:50:43.326Z,99758.53
2022-08-07T05:54:13.758Z,99761.17
2022-08-07T05:56:05.879Z,99762.94
2022-08-07T05:58:39.167Z,99758.46
2022-08-07T06:01:11.207Z,99766.65
2022-08-07T06:03:57.016Z,99766.70
2022-08-07T06:06:32.853Z,99775.80
2022-08-07T06:09:04.324Z,99779.52
2022-08-07T06:11:34.790Z,99779.70
2022-08-07T06:14:11.884Z,99780.83
2022-08-07T06:16:50.765Z,99777.63
2022-08-07T06:19:52.107Z,99780.30
2022-08-07T06:22:23.929Z,99783.74
2022-08-07T06:25:14.848Z,99785.14
2022-08-07T06:28:01.419Z,99787.20
2022-08-07T06:30:35.552Z,99787.79
2022-08-07T06:33:10.041Z,99790.08
2022-08-07T06:35:47.770Z,99790.31
2022-08-07T06:38:33.269Z,99795.17
2022-08-07T06:41:13.080Z,99794.41
2022-08-07T06:43:46.388Z,99793.89
2022-08-07T06:46:31.118Z,99794.33
2022-08-07T06:49:04.555Z,99794.98
2022-08-07T06:51:35.986Z,99790.09
2022-08-07T06:55:31.566Z,99792.81
2022-08-07T06:57:09.412Z,99794.73
2022-08-07T07:00:12.996Z,99794.36
2022-08-07T07:02:48.873Z,99789.80
2022-08-07T07:06:02.788Z,99788.91
2022-08-07T07:08:12.497Z,99785.77
2022-08-07T07:10:47.626Z,99783.41
2022-08-07T07:13:56.710Z,99785.51
2022-08-07T07:16:30.563Z,99790.63
2022-08-07T07:19:23.611Z,99787.10
2022-08-07T07:22:05.328Z,99790.17
2022-08-07T07:25:02.730Z,99784.20
2022-08-07T07:27:58.549Z,99781.70
2022-08-07T07:30:38.000Z,99781.52
2022-08-07T07:33:12.130Z,99782.21
2022-08-07T07:36:04.082Z,99778.75
2022-08-07T07:38:33.359Z,99777.53
2022-08-07T07:41:08.732Z,99778.16
2022-08-07T07:44:14.787Z,99776.72
2022-08-07T07:46:53.395Z,99782.32
2022-08-07T07:50:35.221Z,99776.44
2022-08-07T07:52:13.949Z,99778.06
2022-08-07T07:54:51.074Z,99774.52
2022-08-07T07:57:50.554Z,99776.47
2022-08-07T08:00:20.827Z,99775.54
2022-08-07T08:03:16.658Z,99776.39
2022-08-07T08:06:01.820Z,99774.34
2022-08-07T08:08:36.900Z,99773.06
2022-08-07T08:11:08.408Z,99777.46
2022-08-07T08:14:10.716Z,99774.67
2022-08-07T08:16:50.198Z,99776.73
2022-08-07T08:20:16.125Z,99778.48
2022-08-07T08:22:33.029Z,99774.36
2022-08-07T08:25:26.808Z,99778.14
2022-08-07T08:28:16.870Z,99779.83
2022-08-07T08:31:03.812Z,99779.00
2022-08-07T08:33:36.320Z,99781.10
2022-08-07T08:36:09.859Z,99776.30
2022-08-07T08:38:43.521Z,99770.39
2022-08-07T08:41:23.032Z,99764.31
2022-08-07T08:44:07.495Z,99767.42
2022-08-07T08:47:29.488Z,99768.77
2022-08-07T08:50:39.081Z,99765.70
2022-08-07T08:53:22.581Z,99767.52
2022-08-07T08:55:54.304Z,99770.17
2022-08-07T08:58:47.698Z,99764.10
2022-08-07T09:01:40.060Z,99764.73
2022-08-07T09:04:44.648Z,99765.02
2022-08-07T09:07:45.957Z,99760.62
2022-08-07T09:10:27.482Z,99762.77
2022-08-07T09:13:10.533Z,99761.58
2022-08-07T09:16:24.819Z,99758.04
2022-08-07T09:19:07.349Z,99756.02
2022-08-07T09:22:39.399Z,99748.64
2022-08-07T09:25:11.978Z,99748.81
2022-08-07T09:28:06.358Z,99743.06
2022-08-07T09:31:04.421Z,99742.68
2022-08-07T09:33:58.300Z,99733.81
2022-08-07T09:36:37.309Z,99730.02
2022-08-07T09:39:55.124Z,99735.27
2022-08-07T09:42:39.060Z,99729.55
2022-08-07T09:47:20.071Z,99732.80
2022-08-07T09:48:55.983Z,99727.32
2022-08-07T09:52:15.669Z,99727.71
2022-08-07T09:54:47.913Z,99730.19
2022-08-07T09:57:37.503Z,99724.00
2022-08-07T10:00:16.447Z,99722.39
2022-08-07T10:04:05.431Z,99714.48
2022-08-07T10:06:29.244Z,99711.25
2022-08-07T10:09:06.125Z,99701.47
2022-08-07T10:12:02.288Z,99703.66
2022-08-07T10:14:56.184Z,99704.41
2022-08-07T10:18:12.467Z,99704.91
2022-08-07T10:20:57.097Z,99694.94
2022-08-07T10:24:05.083Z,99688.08
2022-08-07T10:26:36.891Z,99679.77
2022-08-07T10:29:45.844Z,99679.36
2022-08-07T10:32:50.943Z,99680.62
2022-08-07T10:35:55.065Z,99676.69
2022-08-07T10:38:48.533Z,99672.67
2022-08-07T10:41:51.680Z,99669.79
2022-08-07T10:44:40.025Z,99665.34
2022-08-07T10:47:51.346Z,99665.08
2022-08-07T10:50:32.178Z,99666.36
2022-08-07T10:53:44.893Z,99664.56
2022-08-07T10:56:46.347Z,99652.45
2022-08-07T10:59:45.363Z,99647.88
2022-08-07T11:02:40.066Z,99646.21
2022-08-07T11:05:50.522Z,99646.22
2022-08-07T11:08:43.617Z,99649.83
2022-08-07T11:11:22.992Z,99644.66
2022-08-07T11:14:44.699Z,99644.39
2022-08-07T11:17:07.376Z,99633.10
2022-08-07T11:19:51.354Z,99631.06
2022-08-07T11:22:37.197Z,99627.67
2022-08-07T11:25:23.141Z,99626.77
2022-08-07T11:28:04.641Z,99629.77
2022-08-07T11:30:46.683Z,99625.17
2022-08-07T11:33:58.610Z,99623.73
2022-08-07T11:36:49.597Z,99616.95
2022-08-07T11:40:00.207Z,99613.98
2022-08-07T11:43:11.770Z,99611.33
2022-08-07T11:46:06.503Z,99614.56
2022-08-07T11:49:27.605Z,99614.52
2022-08-07T11:52:29.283Z,99604.94
2022-08-07T11:56:15.754Z,99603.89
2022-08-07T11:58:33.833Z,99607.10
2022-08-07T12:01:06.656Z,99605.63
2022-08-07T12:03:54.591Z,99606.87
2022-08-07T12:06:39.026Z,99606.70
2022-08-07T12:09:23.306Z,99597.70
2022-08-07T12:12:12.445Z,99592.39
2022-08-07T12:15:05.234Z,99592.34
2022-08-07T12:17:59.318Z,99596.64
2022-08-07T12:20:34.863Z,99597.65
2022-08-07T12:23:16.516Z,99597.29
2022-08-07T12:26:23.614Z,99593.64
2022-08-07T12:29:06.234Z,99592.42
2022-08-07T12:32:04.655Z,99589.69
2022-08-07T12:34:36.996Z,99587.30
2022-08-07T12:37:08.702Z,99578.48
2022-08-07T12:39:51.620Z,99569.10
2022-08-07T12:42:27.490Z,99571.55
2022-08-07T12:44:59.580Z,99577.41
2022-08-07T12:47:44.067Z,99565.14
2022-08-07T12:50:40.203Z,99561.83
2022-08-07T12:54:03.117Z,99567.32
2022-08-07T12:56:34.988Z,99558.00
2022-08-07T12:59:08.330Z,99559.84
2022-08-07T13:02:03.242Z,99558.56
2022-08-07T13:05:01.147Z,99550.15
2022-08-07T13:08:13.392Z,99547.24
2022-08-07T13:10:59.421Z,99543.54
2022-08-07T13:13:50.609Z,99538.25
2022-08-07T13:16:46.901Z,99536.71
2022-08-07T13:19:50.395Z,99536.20
2022-08-07T13:22:30.423Z,99536.66
2022-08-07T13:25:24.329Z,99535.14
2022-08-07T13:28:10.861Z,99532.23
2022-08-07T13:31:02.017Z,99531.66
2022-08-07T13:34:29.851Z,99527.91
2022-08-07T13:36:59.459Z,99516.92
2022-08-07T13:40:35.061Z,99511.59
2022-08-07T13:42:39.846Z,99506.05
2022-08-07T13:46:07.891Z,99504.42
2022-08-07T13:48:06.389Z,99502.13
2022-08-07T13:50:44.765Z,99498.83
2022-08-07T13:53:36.052Z,99501.05
2022-08-07T13:56:35.375Z,99503.34
2022-08-07T13:59:15.360Z,99501.40
2022-08-07T14:01:51.153Z,99496.30
2022-08-07T14:04:49.225Z,99492.00
2022-08-07T14:07:21.447Z,99490.30
2022-08-07T14:10:17.658Z,99486.71
2022-08-07T14:12:57.130Z,99481.30
2022-08-07T14:15:44.270Z,99483.69
2022-08-07T14:18:29.845Z,99483.02
2022-08-07T14:22:01.860Z,99477.63
2022-08-07T14:24:22.970Z,99474.92
2022-08-07T14:27:00.729Z,99473.82
2022-08-07T14:30:06.613Z,99468.98
2022-08-07T14:32:48.183Z,99467.83
2022-08-07T14:35:44.956Z,99469.27
2022-08-07T14:38:26.675Z,99466.11
2022-08-07T14:41:05.657Z,99461.30
2022-08-07T14:43:58.983Z,99457.05
2022-08-07T14:46:32.547Z,99461.45
2022-08-07T14:49:17.294Z,99458.59
2022-08-07T14:54:44.536Z,99450.09
2022-08-07T14:57:19.571Z,99453.47
2022-08-07T15:00:06.997Z,99450.08
2022-08-07T15:02:37.053Z,99448.95
2022-08-07T15:05:19.591Z,99449.98
2022-08-07T15:07:51.967Z,99452.86
2022-08-07T15:13:19.360Z,99445.90
2022-08-07T15:15:52.211Z,99444.67
2022-08-07T15:18:35.735Z,99446.59
2022-08-07T15:21:58.595Z,99444.30
2022-08-07T15:25:14.364Z,99442.30
2022-08-07T15:27:12.452Z,99440.17
2022-08-07T15:30:04.796Z,99437.80
2022-08-07T15:36:02.062Z,99437.03
2022-08-07T15:38:18.370Z,99433.37
2022-08-07T15:42:42.244Z,99431.55
2022-08-07T15:44:04.784Z,99429.83
2022-08-07T15:46:38.357Z,99430.48
2022-08-07T15:49:15.093Z,99428.10
2022-08-07T15:54:39.706Z,99426.77
2022-08-07T15:57:27.878Z,99427.02
2022-08-07T16:00:06.256Z,99421.54
2022-08-07T16:02:49.998Z,99417.76
2022-08-07T16:05:23.170Z,99415.64
2022-08-07T16:08:31.347Z,99420.71
2022-08-07T16:11:27.221Z,99419.52
2022-08-07T16:14:19.910Z,99421.42
2022-08-07T16:18:02.190Z,99418.98
2022-08-07T16:20:33.612Z,99417.16
2022-08-07T16:23:25.373Z,99411.20
2022-08-07T16:26:34.553Z,99413.00
2022-08-07T16:30:11.553Z,99418.69
2022-08-07T16:32:35.808Z,99413.31
2022-08-07T16:35:59.326Z,99412.98
2022-08-07T16:39:02.194Z,99411.05
2022-08-07T16:41:41.176Z,99409.23
2022-08-07T16:45:13.967Z,99407.82
2022-08-07T16:48:05.859Z,99407.61
2022-08-07T16:51:07.345Z,99406.42
2022-08-07T16:54:06.232Z,99402.48
2022-08-07T16:56:55.007Z,99405.02
2022-08-07T16:59:46.114Z,99406.68
2022-08-07T17:02:53.517Z,99407.80
2022-08-07T17:06:28.773Z,99405.14
2022-08-07T17:10:07.195Z,99406.67
2022-08-07T17:12:56.929Z,99408.38
2022-08-07T17:15:57.069Z,99411.45
2022-08-07T17:19:02.956Z,99412.92
2022-08-07T17:21:53.709Z,99410.27
2022-08-07T17:25:03.735Z,99409.52
2022-08-07T17:28:32.442Z,99408.39
2022-08-07T17:32:02.503Z,99404.98
2022-08-07T17:35:51.306Z,99405.96
2022-08-07T17:39:15.585Z,99404.09
2022-08-07T17:42:06.766Z,99405.60
2022-08-07T17:44:45.288Z,99403.38
2022-08-07T17:47:37.928Z,99404.00
2022-08-07T17:50:30.517Z,99405.45
2022-08-07T17:53:59.845Z,99406.58
2022-08-07T17:56:15.333Z,99409.59
2022-08-07T17:58:54.415Z,99409.50
2022-08-07T18:01:36.719Z,99414.30
2022-08-07T18:04:38.505Z,99417.20
2022-08-07T18:07:20.044Z,99419.96
2022-08-07T18:10:05.915Z,99420.20
2022-08-07T18:13:09.852Z,99422.45
2022-08-07T18:15:53.470Z,99420.73
2022-08-07T18:18:47.543Z,99416.55
2022-08-07T18:21:51.619Z,99418.67
2022-08-07T18:24:34.280Z,99419.02
2022-08-07T18:27:17.395Z,99419.52
2022-08-07T18:30:07.038Z,99421.46
2022-08-07T18:32:55.065Z,99419.71
2022-08-07T18:35:55.724Z,99424.45
2022-08-07T18:38:56.383Z,99425.45
2022-08-07T18:42:12.983Z,99426.09
2022-08-07T18:45:44.819Z,99424.45
2022-08-07T18:50:05.311Z,99424.77
2022-08-07T18:52:35.499Z,99430.54
2022-08-07T18:54:51.099Z,99438.21
2022-08-07T18:58:00.468Z,99440.57
2022-08-07T19:00:54.251Z,99441.03
2022-08-07T19:03:37.779Z,99443.38
2022-08-07T19:06:16.310Z,99444.68
2022-08-07T19:09:09.432Z,99445.23
2022-08-07T19:12:06.714Z,99444.13
2022-08-07T19:15:01.012Z,99451.05
2022-08-07T19:18:05.394Z,99458.34
2022-08-07T19:21:08.347Z,99456.13
2022-08-07T19:23:57.235Z,99456.38
2022-08-07T19:27:09.033Z,99458.04
2022-08-07T19:31:05.818Z,99458.98
2022-08-07T19:32:26.587Z,99458.16
2022-08-07T19:35:09.721Z,99458.37
2022-08-07T19:37:56.475Z,99461.77
2022-08-07T19:40:34.633Z,99462.90
2022-08-07T19:43:21.223Z,99466.63
2022-08-07T19:46:07.390Z,99467.52
2022-08-07T19:48:42.173Z,99464.22
2022-08-07T19:51:19.867Z,99463.15
2022-08-07T19:54:31.864Z,99466.12
2022-08-07T19:57:51.277Z,99463.83
2022-08-07T19:59:41.558Z,99468.94
2022-08-07T20:02:19.744Z,99466.50
2022-08-07T20:04:51.997Z,99467.60
2022-08-07T20:07:47.171Z,99473.95
2022-08-07T20:10:38.176Z,99471.15
2022-08-07T20:13:22.918Z,99468.52
2022-08-07T20:15:58.338Z,99469.42
2022-08-07T20:18:32.684Z,99470.30
2022-08-07T20:21:21.989Z,99468.95
2022-08-07T20:23:58.012Z,99471.98
2022-08-07T20:26:38.945Z,99473.79
2022-08-07T20:29:49.493Z,99477.68
2022-08-07T20:32:11.642Z,99473.83
2022-08-07T20:34:53.135Z,99475.45
2022-08-07T20:37:37.115Z,99472.50
2022-08-07T20:40:32.164Z,99473.58
2022-08-07T20:43:09.388Z,99474.29
2022-08-07T20:46:27.060Z,99474.14
2022-08-07T20:48:31.120Z,99476.19
2022-08-07T20:51:04.004Z,99475.34
2022-08-07T20:54:03.491Z,99469.09
2022-08-07T20:56:28.825Z,99465.77
2022-08-07T20:59:01.377Z,99463.16
2022-08-07T21:01:45.225Z,99464.03
2022-08-07T21:04:26.423Z,99466.48
2022-08-07T21:07:04.270Z,99472.14
2022-08-07T21:09:52.437Z,99466.42
2022-08-07T21:12:31.595Z,99469.45
2022-08-07T21:15:05.047Z,99472.55
2022-08-07T21:18:06.634Z,99469.46
2022-08-07T21:20:29.571Z,99479.17
2022-08-07T21:23:42.853Z,99474.70
2022-08-07T21:26:59.825Z,99473.48
2022-08-07T21:29:38.180Z,99471.75
2022-08-07T21:32:49.565Z,99471.95
2022-08-07T21:36:05.158Z,99476.06
2022-08-07T21:38:35.967Z,99478.00
2022-08-07T21:41:18.028Z,99475.89
2022-08-07T21:44:14.231Z,99478.84
2022-08-07T21:47:02.040Z,99482.53
2022-08-07T21:50:02.426Z,99480.44
2022-08-07T21:52:40.443Z,99481.36
2022-08-07T21:55:27.826Z,99479.46
2022-08-07T21:58:30.450Z,99483.89
2022-08-07T22:01:14.072Z,99487.65
2022-08-07T22:04:03.822Z,99489.13
2022-08-07T22:06:38.652Z,99488.11
2022-08-07T22:09:17.344Z,99489.22
2022-08-07T22:11:52.974Z,99489.94
2022-08-07T22:14:57.909Z,99489.42
2022-08-07T22:17:35.875Z,99492.80
2022-08-07T22:20:43.991Z,99492.45
2022-08-07T22:23:11.184Z,99491.39
2022-08-07T22:26:10.362Z,99495.23
2022-08-07T22:29:17.446Z,99493.66
2022-08-07T22:32:08.066Z,99494.35
2022-08-07T22:34:56.062Z,99495.06
2022-08-07T22:38:04.460Z,99492.96
2022-08-07T22:41:00.035Z,99486.32
2022-08-07T22:43:37.555Z,99489.66
2022-08-07T22:47:02.621Z,99488.13
2022-08-07T22:49:37.904Z,99487.60
2022-08-07T22:52:37.252Z,99491.09
2022-08-07T22:55:23.513Z,99485.17
2022-08-07T22:58:35.366Z,99486.46
2022-08-07T23:01:23.748Z,99483.86
2022-08-07T23:04:30.707Z,99481.95
2022-08-07T23:07:04.491Z,99483.70
2022-08-07T23:10:41.236Z,99484.74
2022-08-07T23:13:29.245Z,99487.51
2022-08-07T23:16:46.470Z,99483.99
2022-08-07T23:19:38.748Z,99475.59
2022-08-07T23:22:29.013Z,99475.95
2022-08-07T23:25:07.630Z,99479.98
2022-08-07T23:28:22.924Z,99482.29
2022-08-07T23:32:49.273Z,99482.50
2022-08-07T23:35:07.252Z,99482.52
2022-08-07T23:38:00.398Z,99481.47
2022-08-07T23:40:49.392Z,99478.31
2022-08-07T23:44:01.009Z,99476.36
2022-08-07T23:46:43.268Z,99478.28
2022-08-07T23:49:49.891Z,99475.30
2022-08-07T23:53:08.781Z,99476.01
2022-08-07T23:55:52.465Z,99474.27
2022-08-07T23:59:10.790Z,99477.77
